createdAt,value
2023-07-08T00:01:51.560Z,22.50
2023-07-08T00:06:53.375Z,21.31
2023-07-08T00:11:55.175Z,22.92
2023-07-08T00:16:56.909Z,21.48
2023-07-08T00:21:58.686Z,23.31
2023-07-08T00:27:00.386Z,21.57
2023-07-08T00:32:02.138Z,21.14
2023-07-08T00:37:06.204Z,19.85
2023-07-08T00:42:16.623Z,21.10
2023-07-08T00:47:19.000Z,19.28
2023-07-08T00:52:25.317Z,20.21
2023-07-08T00:57:32.994Z,20.24
2023-07-08T01:02:39.535Z,21.76
2023-07-08T01:07:45.276Z,21.08
2023-07-08T01:12:50.556Z,21.22
2023-07-08T01:17:54.646Z,21.34
2023-07-08T01:22:56.565Z,21.24
2023-07-08T01:27:58.990Z,20.97
2023-07-08T01:33:05.879Z,22.86
2023-07-08T01:38:11.666Z,21.26
2023-07-08T01:43:13.369Z,22.18
2023-07-08T01:48:19.638Z,21.43
2023-07-08T01:53:28.655Z,21.15
2023-07-08T01:58:30.452Z,21.80
2023-07-08T02:03:32.454Z,21.65
2023-07-08T02:08:34.340Z,20.71
2023-07-08T02:13:36.191Z,20.11
2023-07-08T02:18:37.939Z,19.38
2023-07-08T02:23:40.593Z,19.29
2023-07-08T02:28:42.434Z,18.13
2023-07-08T02:33:44.500Z,18.15
2023-07-08T02:38:46.273Z,17.93
2023-07-08T02:43:48.086Z,18.54
2023-07-08T02:48:49.870Z,18.21
2023-07-08T02:53:51.781Z,18.20
2023-07-08T02:58:54.564Z,19.35
2023-07-08T03:03:59.592Z,18.82
2023-07-08T03:09:01.372Z,19.30
2023-07-08T03:14:03.985Z,18.69
2023-07-08T03:19:06.863Z,19.28
2023-07-08T03:24:14.734Z,19.33
2023-07-08T03:29:19.499Z,18.53
2023-07-08T03:34:21.243Z,18.09
2023-07-08T03:39:25.242Z,18.83
2023-07-08T03:44:27.023Z,18.13
2023-07-08T03:49:28.790Z,18.21
2023-07-08T03:54:30.514Z,17.93
2023-07-08T03:59:32.236Z,17.58
2023-07-08T04:04:34.000Z,17.95
2023-07-08T04:09:35.730Z,18.73
2023-07-08T04:14:37.579Z,19.90
2023-07-08T04:19:40.583Z,21.16
2023-07-08T04:24:42.313Z,20.29
2023-07-08T04:29:45.248Z,19.72
2023-07-08T04:34:46.942Z,20.10
2023-07-08T04:39:48.764Z,20.27
2023-07-08T04:44:50.870Z,21.42
2023-07-08T04:49:52.656Z,19.81
2023-07-08T04:54:54.446Z,22.51
2023-07-08T04:59:56.183Z,20.45
2023-07-08T05:04:57.890Z,19.71
2023-07-08T05:09:59.764Z,19.62
2023-07-08T05:15:01.631Z,18.90
2023-07-08T05:20:04.624Z,19.74
2023-07-08T05:25:07.384Z,20.61
2023-07-08T05:30:12.179Z,19.67
2023-07-08T05:35:14.193Z,19.81
2023-07-08T05:40:16.561Z,21.17
2023-07-08T05:45:18.375Z,21.37
2023-07-08T05:50:20.281Z,21.46
2023-07-08T05:55:22.012Z,20.95
2023-07-08T06:00:33.986Z,21.59
2023-07-08T06:05:40.795Z,21.77
2023-07-08T06:10:45.461Z,21.75
2023-07-08T06:15:47.391Z,22.04
2023-07-08T06:20:57.728Z,21.85
2023-07-08T06:25:59.730Z,22.49
2023-07-08T06:31:01.814Z,22.21
2023-07-08T06:36:04.064Z,23.14
2023-07-08T06:41:05.794Z,22.62
2023-07-08T06:46:07.980Z,21.96
2023-07-08T06:51:09.815Z,22.16
2023-07-08T06:56:11.693Z,21.58
2023-07-08T07:01:14.372Z,23.30
2023-07-08T07:06:16.179Z,22.08
2023-07-08T07:11:20.333Z,22.42
2023-07-08T07:16:22.217Z,21.55
2023-07-08T07:21:24.023Z,22.55
2023-07-08T07:26:25.758Z,22.25
2023-07-08T07:31:27.609Z,23.04
2023-07-08T07:36:30.265Z,24.06
2023-07-08T07:41:32.009Z,23.50
2023-07-08T07:46:33.995Z,24.48
2023-07-08T07:51:35.761Z,23.84
2023-07-08T07:56:37.489Z,24.21
2023-07-08T08:01:39.370Z,23.10
2023-07-08T08:06:41.365Z,24.58
2023-07-08T08:11:43.100Z,24.14
2023-07-08T08:16:45.566Z,23.48
2023-07-08T08:21:47.419Z,24.71
2023-07-08T08:26:49.300Z,25.31
2023-07-08T08:31:51.937Z,25.44
2023-07-08T08:36:56.808Z,24.56
2023-07-08T08:41:59.005Z,25.21
2023-07-08T08:47:20.950Z,26.13
2023-07-08T08:52:22.797Z,25.83
2023-07-08T08:57:48.069Z,26.06
2023-07-08T09:02:49.735Z,26.02
2023-07-08T09:08:03.550Z,25.63
2023-07-08T09:13:07.776Z,25.76
2023-07-08T09:18:26.821Z,26.14
2023-07-08T09:23:33.618Z,26.73
2023-07-08T09:28:44.460Z,26.67
2023-07-08T09:33:46.208Z,27.22
2023-07-08T09:38:49.994Z,27.07
2023-07-08T09:43:51.869Z,26.42
2023-07-08T09:48:53.591Z,26.39
2023-07-08T09:53:55.648Z,26.94
2023-07-08T09:58:58.151Z,27.34
2023-07-08T10:04:01.942Z,28.26
2023-07-08T10:09:19.874Z,28.17
2023-07-08T10:14:26.638Z,27.42
2023-07-08T10:19:28.649Z,28.45
2023-07-08T10:24:55.293Z,28.21
2023-07-08T10:30:23.735Z,28.18
2023-07-08T10:35:38.594Z,28.40
2023-07-08T10:40:49.330Z,28.68
2023-07-08T10:45:57.207Z,28.85
2023-07-08T10:51:14.185Z,28.12
2023-07-08T10:56:25.134Z,29.88
2023-07-08T11:06:28.256Z,28.52
2023-07-08T11:11:52.340Z,28.52
2023-07-08T11:17:07.306Z,28.75
2023-07-08T11:22:12.755Z,28.44
2023-07-08T11:27:28.791Z,27.45
2023-07-08T11:32:34.098Z,29.12
2023-07-08T11:37:36.166Z,28.52
2023-07-08T11:42:58.328Z,28.54
2023-07-08T11:48:06.838Z,29.01
2023-07-08T11:53:14.712Z,28.10
2023-07-08T11:58:27.405Z,28.74
2023-07-08T12:03:40.572Z,29.15
2023-07-08T12:08:43.216Z,29.69
2023-07-08T12:13:44.917Z,29.81
2023-07-08T12:18:47.712Z,29.50
2023-07-08T12:23:49.472Z,29.14
2023-07-08T12:28:51.124Z,30.29
2023-07-08T12:33:53.123Z,30.90
2023-07-08T12:38:57.675Z,30.95
2023-07-08T12:44:00.766Z,30.29
2023-07-08T12:49:02.479Z,30.76
2023-07-08T12:54:04.248Z,30.61
2023-07-08T12:59:08.009Z,30.39
2023-07-08T13:04:13.030Z,30.78
2023-07-08T13:09:35.079Z,30.95
2023-07-08T13:14:37.310Z,30.74
2023-07-08T13:19:39.499Z,29.60
2023-07-08T13:24:41.727Z,29.97
2023-07-08T13:29:43.807Z,30.73
2023-07-08T13:34:45.491Z,31.51
2023-07-08T13:39:47.367Z,29.95
2023-07-08T13:44:50.232Z,30.57
2023-07-08T13:50:18.395Z,31.29
2023-07-08T13:55:30.382Z,30.37
2023-07-08T14:00:32.792Z,30.83
2023-07-08T14:05:34.637Z,30.79
2023-07-08T14:10:36.372Z,31.98
2023-07-08T14:15:40.069Z,31.39
2023-07-08T14:20:42.092Z,30.89
2023-07-08T14:25:43.832Z,31.75
2023-07-08T14:30:48.912Z,31.29
2023-07-08T14:35:51.232Z,31.03
2023-07-08T14:40:52.864Z,31.01
2023-07-08T14:45:57.679Z,31.82
2023-07-08T14:51:00.088Z,31.38
2023-07-08T14:56:14.743Z,31.65
2023-07-08T15:01:21.529Z,31.18
2023-07-08T15:06:24.306Z,31.48
2023-07-08T15:11:27.619Z,31.90
2023-07-08T15:16:29.389Z,31.17
2023-07-08T15:21:31.051Z,32.81
2023-07-08T15:26:32.724Z,32.54
2023-07-08T15:31:35.863Z,32.63
2023-07-08T15:36:37.608Z,32.65
2023-07-08T15:41:39.985Z,33.08
2023-07-08T15:46:49.784Z,32.61
2023-07-08T15:51:52.009Z,33.06
2023-07-08T15:56:54.878Z,32.87
2023-07-08T16:02:03.977Z,32.19
2023-07-08T16:07:05.972Z,33.39
2023-07-08T16:12:12.512Z,32.57
2023-07-08T16:17:14.341Z,32.75
2023-07-08T16:22:16.039Z,32.46
2023-07-08T16:27:17.962Z,31.97
2023-07-08T16:32:24.211Z,33.39
2023-07-08T16:37:25.976Z,33.88
2023-07-08T16:42:27.896Z,33.38
2023-07-08T16:47:29.655Z,32.44
2023-07-08T16:52:32.945Z,33.43
2023-07-08T16:57:34.688Z,33.10
2023-07-08T17:02:37.087Z,32.92
2023-07-08T17:07:39.011Z,32.82
2023-07-08T17:12:42.069Z,32.78
2023-07-08T17:17:50.072Z,33.14
2023-07-08T17:22:51.921Z,33.36
2023-07-08T17:27:55.302Z,33.54
2023-07-08T17:32:59.560Z,32.98
2023-07-08T17:38:01.268Z,33.60
2023-07-08T17:43:03.262Z,32.61
2023-07-08T17:48:09.364Z,32.58
2023-07-08T17:53:17.817Z,32.62
2023-07-08T17:58:20.024Z,32.48
2023-07-08T18:03:21.867Z,33.42
2023-07-08T18:08:23.634Z,33.18
2023-07-08T18:13:28.204Z,32.22
2023-07-08T18:18:30.285Z,33.38
2023-07-08T18:23:35.964Z,33.48
2023-07-08T18:28:37.916Z,33.04
2023-07-08T18:33:39.631Z,33.24
2023-07-08T18:38:41.730Z,33.07
2023-07-08T18:43:43.610Z,33.26
2023-07-08T18:48:45.676Z,33.27
2023-07-08T18:53:47.436Z,33.15
2023-07-08T18:58:49.146Z,33.07
2023-07-08T19:03:51.944Z,33.06
2023-07-08T19:08:53.732Z,32.74
2023-07-08T19:13:56.209Z,32.35
2023-07-08T19:18:58.054Z,32.48
2023-07-08T19:24:00.447Z,31.42
2023-07-08T19:29:02.229Z,32.52
2023-07-08T19:34:06.360Z,31.30
2023-07-08T19:39:10.983Z,29.57
2023-07-08T19:44:21.285Z,29.22
2023-07-08T19:49:23.078Z,27.10
2023-07-08T19:54:25.466Z,26.69
2023-07-08T19:59:28.865Z,25.72
2023-07-08T20:04:30.579Z,27.18
2023-07-08T20:09:32.370Z,26.58
2023-07-08T20:14:35.782Z,25.96
2023-07-08T20:19:37.498Z,27.71
2023-07-08T20:24:39.202Z,28.37
2023-07-08T20:29:40.926Z,28.17
2023-07-08T20:34:42.769Z,27.74
2023-07-08T20:39:44.575Z,28.68
2023-07-08T20:44:46.333Z,28.26
2023-07-08T20:49:48.075Z,28.61
2023-07-08T20:54:51.400Z,28.29
2023-07-08T20:59:53.147Z,29.08
2023-07-08T21:04:55.018Z,28.83
2023-07-08T21:09:56.875Z,28.08
2023-07-08T21:14:58.575Z,28.59
2023-07-08T21:20:00.298Z,28.27
2023-07-08T21:25:02.025Z,28.34
2023-07-08T21:30:10.921Z,28.52
2023-07-08T21:35:12.945Z,27.59
2023-07-08T21:40:30.412Z,28.10
2023-07-08T21:45:37.121Z,27.18
2023-07-08T21:50:58.760Z,26.72
2023-07-08T21:56:01.737Z,26.52
2023-07-08T22:01:03.596Z,26.15
2023-07-08T22:06:05.772Z,26.40
2023-07-08T22:11:29.509Z,25.77
2023-07-08T22:16:32.254Z,26.32
2023-07-08T22:21:39.596Z,26.46
2023-07-08T22:26:44.688Z,26.37
2023-07-08T22:31:46.562Z,27.83
2023-07-08T22:36:48.354Z,26.44
2023-07-08T22:41:58.159Z,25.99
2023-07-08T22:47:01.404Z,25.23
2023-07-08T22:52:03.482Z,25.90
2023-07-08T22:57:05.868Z,24.81
2023-07-08T23:02:07.750Z,24.68
2023-07-08T23:07:12.113Z,24.99
2023-07-08T23:12:13.849Z,24.90
2023-07-08T23:17:15.675Z,24.46
2023-07-08T23:22:20.852Z,25.48
2023-07-08T23:27:24.251Z,26.35
2023-07-08T23:32:25.976Z,25.24
2023-07-08T23:37:30.478Z,26.57
2023-07-08T23:42:32.203Z,25.64
2023-07-08T23:47:34.665Z,24.68
2023-07-08T23:52:36.569Z,25.22
2023-07-08T23:57:38.412Z,24.39
